Time,TemperatureF,DewpointF,PressureIn,WindDirection,WindDirectionDegrees,WindSpeedMPH,WindSpeedGustMPH,Humidity,HourlyPrecipIn,Conditions,Clouds,dailyrainin,SoftwareType,DateUTC
2013-04-15 00:02:00,56.0,45.2,29.62,SE,137,5.0,10.0,67,0.00,,CLR,0.00,VWS V14.01,2013-04-15 04:02:00,
2013-04-15 00:07:00,56.0,45.2,29.62,East,99,2.0,7.0,67,0.00,,CLR,0.00,VWS V14.01,2013-04-15 04:07:00,
2013-04-15 00:13:00,56.0,45.2,29.62,SE,143,2.0,8.0,67,0.00,,CLR,0.00,VWS V14.01,2013-04-15 04:13:00,
2013-04-15 00:22:00,55.9,44.7,29.62,SE,124,5.0,9.0,66,0.00,,CLR,0.00,VWS V14.01,2013-04-15 04:22:00,
2013-04-15 00:27:00,55.9,44.7,29.62,ESE,117,6.0,12.0,66,0.00,,CLR,0.00,VWS V14.01,2013-04-15 04:27:00,
2013-04-15 00:32:00,55.9,44.7,29.61,SE,126,6.0,8.0,66,0.00,,CLR,0.00,VWS V14.01,2013-04-15 04:32:00,
2013-04-15 00:42:00,55.7,44.5,29.61,ESE,106,1.0,6.0,66,0.00,,CLR,0.00,VWS V14.01,2013-04-15 04:42:00,
2013-04-15 00:47:00,55.6,44.4,29.61,SE,136,0.0,6.0,66,0.00,,CLR,0.00,VWS V14.01,2013-04-15 04:47:00,
2013-04-15 00:52:00,55.6,44.4,29.61,SE,134,8.0,9.0,66,0.00,,CLR,0.00,VWS V14.01,2013-04-15 04:52:00,
2013-04-15 00:57:00,55.7,44.1,29.61,SSE,160,3.0,8.0,65,0.00,,CLR,0.00,VWS V14.01,2013-04-15 04:57:00,
2013-04-15 01:07:00,56.0,43.6,29.61,SE,130,1.0,6.0,63,0.00,,CLR,0.00,VWS V14.01,2013-04-15 05:07:00,
2013-04-15 01:12:00,56.7,43.4,29.61,SE,140,6.0,10.0,61,0.00,,CLR,0.00,VWS V14.01,2013-04-15 05:12:00,
2013-04-15 01:17:00,57.5,43.3,29.61,SSE,152,0.0,8.0,59,0.00,,CLR,0.00,VWS V14.01,2013-04-15 05:17:00,
2013-04-15 01:27:00,58.9,43.2,29.61,ESE,116,4.0,14.0,56,0.00,,CLR,0.00,VWS V14.01,2013-04-15 05:27:00,
2013-04-15 01:32:00,59.0,42.9,29.61,SSE,151,2.0,13.0,55,0.00,,CLR,0.00,VWS V14.01,2013-04-15 05:32:00,
2013-04-15 01:37:00,58.9,42.8,29.61,SSE,157,6.0,14.0,55,0.00,,CLR,0.00,VWS V14.01,2013-04-15 05:37:00,
2013-04-15 01:42:00,58.7,43.1,29.61,SSE,155,11.0,13.0,56,0.00,,CLR,0.00,VWS V14.01,2013-04-15 05:42:00,
2013-04-15 01:47:00,58.4,42.8,29.61,SE,141,6.0,12.0,56,0.00,,CLR,0.00,VWS V14.01,2013-04-15 05:47:00,
2013-04-15 01:57:00,58.4,43.2,29.61,SE,131,5.0,12.0,57,0.00,,CLR,0.00,VWS V14.01,2013-04-15 05:57:00,
2013-04-15 02:02:00,58.3,43.2,29.61,SSE,164,8.0,13.0,57,0.00,,CLR,0.00,VWS V14.01,2013-04-15 06:02:00,
2013-04-15 02:12:00,58.3,43.2,29.61,SSE,148,6.0,12.0,57,0.00,,CLR,0.00,VWS V14.01,2013-04-15 06:12:00,
2013-04-15 02:17:00,58.0,42.9,29.61,SE,130,2.0,9.0,57,0.00,,CLR,0.00,VWS V14.01,2013-04-15 06:17:00,
2013-04-15 02:22:00,57.6,43.0,29.61,SSE,161,5.0,8.0,58,0.00,,CLR,0.00,VWS V14.01,2013-04-15 06:22:00,
2013-04-15 02:27:00,57.3,42.7,29.61,SSE,148,6.0,9.0,58,0.00,,CLR,0.00,VWS V14.01,2013-04-15 06:27:00,
2013-04-15 02:32:00,57.2,43.0,29.61,SE,141,2.0,8.0,59,0.00,,CLR,0.00,VWS V14.01,2013-04-15 06:32:00,
2013-04-15 02:37:00,57.0,42.8,29.61,SE,136,5.0,8.0,59,0.00,,CLR,0.00,VWS V14.01,2013-04-15 06:37:00,
2013-04-15 02:47:00,57.0,42.8,29.62,SE,130,8.0,8.0,59,0.00,,CLR,0.00,VWS V14.01,2013-04-15 06:47:00,
2013-04-15 02:52:00,57.0,42.8,29.62,SSE,165,6.0,13.0,59,0.00,,CLR,0.00,VWS V14.01,2013-04-15 06:52:00,
2013-04-15 02:57:00,57.0,42.8,29.62,SSE,162,3.0,11.0,59,0.00,,CLR,0.00,VWS V14.01,2013-04-15 06:57:00,
2013-04-15 03:42:00,56.3,43.5,29.66,SSE,162,6.0,11.0,62,0.00,,CLR,0.00,VWS V14.01,2013-04-15 07:42:00,
2013-04-15 03:47:00,56.3,43.5,29.66,SSW,203,8.0,12.0,62,0.00,,CLR,0.00,VWS V14.01,2013-04-15 07:47:00,
2013-04-15 03:52:00,56.3,43.9,29.66,South,182,10.0,11.0,63,0.00,,CLR,0.00,VWS V14.01,2013-04-15 07:52:00,
2013-04-15 03:57:00,56.5,44.1,29.66,SSW,209,10.0,16.0,63,0.00,,CLR,0.00,VWS V14.01,2013-04-15 07:57:00,
2013-04-15 04:02:00,56.6,43.8,29.67,South,186,11.0,16.0,62,0.00,,CLR,0.00,VWS V14.01,2013-04-15 08:02:00,
2013-04-15 04:07:00,56.9,44.0,29.67,SSW,205,7.0,17.0,62,0.00,,CLR,0.00,VWS V14.01,2013-04-15 08:07:00,
2013-04-15 04:12:00,56.7,43.8,29.67,South,176,7.0,13.0,62,0.00,,CLR,0.00,VWS V14.01,2013-04-15 08:12:00,
2013-04-15 04:22:00,56.6,44.2,29.67,South,189,10.0,13.0,63,0.00,,CLR,0.00,VWS V14.01,2013-04-15 08:22:00,
2013-04-15 04:27:00,56.6,44.2,29.67,SSE,151,7.0,14.0,63,0.00,,CLR,0.00,VWS V14.01,2013-04-15 08:27:00,
2013-04-15 04:37:00,56.5,44.5,29.68,SSW,196,6.0,11.0,64,0.00,,CLR,0.00,VWS V14.01,2013-04-15 08:37:00,
2013-04-15 04:42:00,56.5,44.5,29.68,SSW,195,5.0,12.0,64,0.00,,CLR,0.00,VWS V14.01,2013-04-15 08:42:00,
2013-04-15 04:47:00,56.3,44.7,29.68,SSW,199,5.0,11.0,65,0.00,,CLR,0.00,VWS V14.01,2013-04-15 08:47:00,
2013-04-15 04:52:00,56.0,44.4,29.68,SSE,161,5.0,8.0,65,0.00,,CLR,0.00,VWS V14.01,2013-04-15 08:52:00,
2013-04-15 05:02:00,56.0,44.8,29.68,South,176,2.0,12.0,66,0.00,,CLR,0.00,VWS V14.01,2013-04-15 09:02:00,
2013-04-15 05:07:00,55.9,44.7,29.68,South,188,2.0,6.0,66,0.00,,CLR,0.00,VWS V14.01,2013-04-15 09:07:00,
2013-04-15 05:17:00,55.7,44.5,29.67,SSE,154,0.0,7.0,66,0.00,,CLR,0.00,VWS V14.01,2013-04-15 09:17:00,
2013-04-15 05:22:00,55.7,44.5,29.67,South,171,2.0,9.0,66,0.00,,CLR,0.00,VWS V14.01,2013-04-15 09:22:00,
2013-04-15 05:27:00,55.9,44.7,29.67,SSE,161,1.0,8.0,66,0.00,,CLR,0.00,VWS V14.01,2013-04-15 09:27:00,
2013-04-15 05:32:00,55.9,44.7,29.67,SSE,147,3.0,8.0,66,0.00,,CLR,0.00,VWS V14.01,2013-04-15 09:32:00,
2013-04-15 05:37:00,55.9,44.7,29.67,SSE,158,2.0,8.0,66,0.00,,CLR,0.00,VWS V14.01,2013-04-15 09:37:00,
2013-04-15 05:42:00,55.7,44.5,29.67,SSE,152,1.0,7.0,66,0.00,,SCT120,0.00,VWS V14.01,2013-04-15 09:42:00,
2013-04-15 05:47:00,55.7,44.9,29.66,SE,141,7.0,11.0,67,0.00,,SCT120,0.00,VWS V14.01,2013-04-15 09:47:00,
2013-04-15 05:52:00,55.7,44.5,29.66,SSE,154,2.0,7.0,66,0.00,,SCT120,0.00,VWS V14.01,2013-04-15 09:52:00,
2013-04-15 05:57:00,55.7,44.9,29.66,SE,145,5.0,7.0,67,0.00,,SCT120,0.00,VWS V14.01,2013-04-15 09:57:00,
2013-04-15 06:07:00,55.9,45.1,29.66,SSE,160,6.0,9.0,67,0.00,,SCT120,0.00,VWS V14.01,2013-04-15 10:07:00,
2013-04-15 06:12:00,55.9,45.1,29.66,SE,138,7.0,8.0,67,0.00,,SCT120,0.00,VWS V14.01,2013-04-15 10:12:00,
2013-04-15 06:17:00,55.9,45.1,29.65,SE,141,2.0,10.0,67,0.00,,SCT120,0.00,VWS V14.01,2013-04-15 10:17:00,
2013-04-15 06:22:00,55.9,44.7,29.65,SSE,147,5.0,10.0,66,0.00,,SCT120,0.00,VWS V14.01,2013-04-15 10:22:00,
2013-04-15 06:32:00,55.9,45.1,29.66,SSE,160,2.0,11.0,67,0.00,,SCT120,0.00,VWS V14.01,2013-04-15 10:32:00,
2013-04-15 06:37:00,55.7,44.9,29.66,SE,143,4.0,8.0,67,0.00,,SCT120,0.00,VWS V14.01,2013-04-15 10:37:00,
2013-04-15 06:42:00,55.6,44.8,29.66,South,171,7.0,10.0,67,0.00,,CLR,0.00,VWS V14.01,2013-04-15 10:42:00,
2013-04-15 06:52:00,55.3,44.9,29.65,SSE,161,6.0,10.0,68,0.00,,CLR,0.00,VWS V14.01,2013-04-15 10:52:00,
2013-04-15 06:57:00,55.4,45.0,29.65,South,179,3.0,12.0,68,0.00,,CLR,0.00,VWS V14.01,2013-04-15 10:57:00,
2013-04-15 07:02:00,55.4,45.0,29.65,South,172,5.0,11.0,68,0.00,,CLR,0.00,VWS V14.01,2013-04-15 11:02:00,
2013-04-15 07:07:00,55.4,45.0,29.65,SSE,154,4.0,11.0,68,0.00,,CLR,0.00,VWS V14.01,2013-04-15 11:07:00,
2013-04-15 07:12:00,55.4,45.0,29.65,SE,145,6.0,9.0,68,0.00,,CLR,0.00,VWS V14.01,2013-04-15 11:12:00,
2013-04-15 07:17:00,55.4,45.0,29.67,SSE,161,2.0,7.0,68,0.00,,CLR,0.00,VWS V14.01,2013-04-15 11:17:00,
2013-04-15 07:22:00,55.4,45.0,29.67,SE,140,3.0,12.0,68,0.00,,CLR,0.00,VWS V14.01,2013-04-15 11:22:00,
2013-04-15 07:27:00,55.3,44.9,29.67,SSE,160,5.0,9.0,68,0.00,,CLR,0.00,VWS V14.01,2013-04-15 11:27:00,
2013-04-15 07:32:00,55.3,44.9,29.67,SW,215,6.0,10.0,68,0.00,,CLR,0.00,VWS V14.01,2013-04-15 11:32:00,
2013-04-15 07:37:00,55.1,44.7,29.67,SSE,155,3.0,11.0,68,0.00,,CLR,0.00,VWS V14.01,2013-04-15 11:37:00,
2013-04-15 07:42:00,55.1,45.1,29.67,SSE,151,3.0,7.0,69,0.00,,FEW110,0.00,VWS V14.01,2013-04-15 11:42:00,
2013-04-15 07:52:00,55.0,45.0,29.69,SE,141,5.0,10.0,69,0.00,,FEW110,0.00,VWS V14.01,2013-04-15 11:52:00,
2013-04-15 07:57:00,54.8,44.8,29.69,SSE,155,2.0,11.0,69,0.00,,FEW110,0.00,VWS V14.01,2013-04-15 11:57:00,
2013-04-15 08:02:00,55.0,45.0,29.69,ESE,104,2.0,7.0,69,0.00,,FEW110,0.00,VWS V14.01,2013-04-15 12:02:00,
2013-04-15 08:12:00,55.6,45.6,29.69,SSE,160,7.0,7.0,69,0.00,,FEW110,0.00,VWS V14.01,2013-04-15 12:12:00,
2013-04-15 08:17:00,55.7,45.3,29.70,South,179,1.0,11.0,68,0.00,,FEW110,0.00,VWS V14.01,2013-04-15 12:17:00,
2013-04-15 08:22:00,56.2,45.4,29.70,SSE,154,3.0,11.0,67,0.00,,FEW110,0.00,VWS V14.01,2013-04-15 12:22:00,
2013-04-15 08:27:00,56.7,45.9,29.70,SE,145,4.0,8.0,67,0.00,,FEW110,0.00,VWS V14.01,2013-04-15 12:27:00,
2013-04-15 08:32:00,57.0,45.8,29.70,SSE,160,1.0,11.0,66,0.00,,FEW110,0.00,VWS V14.01,2013-04-15 12:32:00,
2013-04-15 08:37:00,56.9,45.7,29.70,SSE,152,3.0,12.0,66,0.00,,FEW110,0.00,VWS V14.01,2013-04-15 12:37:00,
2013-04-15 08:42:00,56.7,45.9,29.70,SSE,164,6.0,9.0,67,0.00,,FEW110,0.00,VWS V14.01,2013-04-15 12:42:00,
2013-04-15 08:47:00,56.7,45.9,29.71,SSE,160,7.0,10.0,67,0.00,,FEW110,0.00,VWS V14.01,2013-04-15 12:47:00,
2013-04-15 08:52:00,57.2,46.8,29.71,SSE,158,5.0,13.0,68,0.00,,FEW110,0.00,VWS V14.01,2013-04-15 12:52:00,
2013-04-15 09:02:00,57.5,46.6,29.71,SSE,148,7.0,10.0,67,0.00,,FEW110,0.00,VWS V14.01,2013-04-15 13:02:00,
2013-04-15 09:07:00,57.6,46.7,29.71,South,175,7.0,11.0,67,0.00,,FEW110,0.00,VWS V14.01,2013-04-15 13:07:00,
2013-04-15 09:12:00,57.6,46.7,29.71,SSW,192,8.0,20.0,67,0.00,,FEW110,0.00,VWS V14.01,2013-04-15 13:12:00,
2013-04-15 09:17:00,57.5,47.0,29.72,SSW,205,13.0,17.0,68,0.00,,FEW110,0.00,VWS V14.01,2013-04-15 13:17:00,
2013-04-15 09:27:00,57.5,47.0,29.72,SSW,203,3.0,11.0,68,0.00,,FEW110,0.00,VWS V14.01,2013-04-15 13:27:00,
2013-04-15 09:37:00,57.6,47.1,29.71,SSE,151,3.0,13.0,68,0.00,,FEW110,0.00,VWS V14.01,2013-04-15 13:37:00,
2013-04-15 09:47:00,58.3,47.4,29.70,South,191,0.0,0.0,67,0.00,,OVC044,0.00,VWS V14.01,2013-04-15 13:47:00,
2013-04-15 09:52:00,58.7,47.4,29.70,SSE,150,0.0,0.0,66,0.00,,OVC044,0.00,VWS V14.01,2013-04-15 13:52:00,
2013-04-15 09:57:00,58.9,47.6,29.70,SSE,165,0.0,0.0,66,0.00,,OVC044,0.00,VWS V14.01,2013-04-15 13:57:00,
2013-04-15 10:02:00,58.9,47.6,29.70,South,179,0.0,0.0,66,0.00,,OVC044,0.00,VWS V14.01,2013-04-15 14:02:00,
2013-04-15 10:07:00,58.7,47.4,29.70,SSE,154,0.0,0.0,66,0.00,,OVC044,0.00,VWS V14.01,2013-04-15 14:07:00,
2013-04-15 10:22:00,58.4,47.9,29.71,SSE,165,0.0,0.0,68,0.00,,OVC044,0.00,VWS V14.01,2013-04-15 14:22:00,
2013-04-15 10:27:00,58.7,47.8,29.71,South,179,0.0,0.0,67,0.00,,OVC044,0.00,VWS V14.01,2013-04-15 14:27:00,
2013-04-15 10:32:00,58.7,48.2,29.71,SSE,158,0.0,0.0,68,0.00,,OVC044,0.00,VWS V14.01,2013-04-15 14:32:00,
2013-04-15 10:37:00,58.7,48.2,29.71,South,185,0.0,0.0,68,0.00,,OVC044,0.00,VWS V14.01,2013-04-15 14:37:00,
2013-04-15 10:47:00,58.6,48.1,29.71,South,172,0.0,0.0,68,0.00,,BKN055,0.00,VWS V14.01,2013-04-15 14:47:00,
2013-04-15 10:57:00,59.0,48.5,29.71,SSE,165,0.0,0.0,68,0.00,,BKN055,0.00,VWS V14.01,2013-04-15 14:57:00,
2013-04-15 11:02:00,59.3,48.4,29.71,South,176,0.0,0.0,67,0.00,,BKN055,0.00,VWS V14.01,2013-04-15 15:02:00,
2013-04-15 11:07:00,59.8,48.8,29.71,SE,141,0.0,0.0,67,0.00,,BKN055,0.00,VWS V14.01,2013-04-15 15:07:00,
2013-04-15 11:17:00,60.2,48.8,29.70,South,172,0.0,0.0,66,0.00,,BKN055,0.00,VWS V14.01,2013-04-15 15:17:00,
2013-04-15 11:22:00,60.5,49.1,29.70,SE,131,0.0,0.0,66,0.00,,BKN055,0.00,VWS V14.01,2013-04-15 15:22:00,
2013-04-15 11:32:00,60.7,49.7,29.71,SSE,168,0.0,0.0,67,0.00,,BKN055,0.00,VWS V14.01,2013-04-15 15:32:00,
2013-04-15 11:42:00,61.0,49.6,29.71,SSW,199,0.0,0.0,66,0.00,,CLR,0.00,VWS V14.01,2013-04-15 15:42:00,
2013-04-15 11:47:00,61.2,50.2,29.72,South,186,0.0,0.0,67,0.00,,CLR,0.00,VWS V14.01,2013-04-15 15:47:00,
2013-04-15 11:52:00,61.3,50.3,29.72,SSE,155,0.0,0.0,67,0.00,,CLR,0.00,VWS V14.01,2013-04-15 15:52:00,
2013-04-15 11:57:00,61.3,49.9,29.72,South,182,0.0,0.0,66,0.00,,CLR,0.00,VWS V14.01,2013-04-15 15:57:00,
2013-04-15 12:07:00,61.3,50.7,29.72,SSE,168,0.0,0.0,68,0.00,,CLR,0.00,VWS V14.01,2013-04-15 16:07:00,
2013-04-15 12:12:00,61.2,51.0,29.72,South,174,0.0,0.0,69,0.00,,CLR,0.00,VWS V14.01,2013-04-15 16:12:00,
2013-04-15 12:22:00,61.3,51.1,29.72,SE,144,0.0,0.0,69,0.00,,CLR,0.00,VWS V14.01,2013-04-15 16:22:00,
2013-04-15 12:27:00,61.5,50.8,29.72,SW,223,0.0,0.0,68,0.00,,CLR,0.00,VWS V14.01,2013-04-15 16:27:00,
2013-04-15 12:32:00,61.6,51.0,29.71,SSE,162,0.0,0.0,68,0.00,,CLR,0.00,VWS V14.01,2013-04-15 16:32:00,
2013-04-15 12:37:00,61.6,51.0,29.71,SSE,157,0.0,0.0,68,0.00,,CLR,0.00,VWS V14.01,2013-04-15 16:37:00,
2013-04-15 12:42:00,61.6,51.0,29.71,SSW,195,0.0,0.0,68,0.00,,BKN024,0.00,VWS V14.01,2013-04-15 16:42:00,
2013-04-15 12:47:00,62.0,51.7,29.70,South,176,0.0,0.0,69,0.00,,BKN024,0.00,VWS V14.01,2013-04-15 16:47:00,
2013-04-15 12:52:00,61.8,51.1,29.70,SSE,164,0.0,0.0,68,0.00,,BKN024,0.00,VWS V14.01,2013-04-15 16:52:00,
2013-04-15 12:57:00,61.6,51.3,29.70,SSW,203,0.0,0.0,69,0.00,,BKN024,0.00,VWS V14.01,2013-04-15 16:57:00,
2013-04-15 13:02:00,61.2,51.0,29.72,SW,224,0.0,0.0,69,0.00,,BKN024,0.00,VWS V14.01,2013-04-15 17:02:00,
2013-04-15 13:12:00,61.0,51.5,29.72,SW,224,0.0,0.0,71,0.00,,BKN024,0.00,VWS V14.01,2013-04-15 17:12:00,
2013-04-15 13:17:00,61.2,51.7,29.72,SSW,206,0.0,0.0,71,0.00,,BKN024,0.00,VWS V14.01,2013-04-15 17:17:00,
2013-04-15 13:22:00,61.5,52.0,29.72,SW,215,0.0,0.0,71,0.00,,BKN024,0.00,VWS V14.01,2013-04-15 17:22:00,
2013-04-15 13:27:00,61.8,51.9,29.72,South,185,0.0,0.0,70,0.00,,BKN024,0.00,VWS V14.01,2013-04-15 17:27:00,
2013-04-15 13:32:00,62.0,51.7,29.71,SSE,154,0.0,0.0,69,0.00,,BKN024,0.00,VWS V14.01,2013-04-15 17:32:00,
2013-04-15 13:37:00,62.0,51.7,29.71,SSW,210,0.0,0.0,69,0.00,,BKN024,0.00,VWS V14.01,2013-04-15 17:37:00,
2013-04-15 13:42:00,62.1,52.2,29.71,SSW,210,0.0,0.0,70,0.00,,OVC024,0.00,VWS V14.01,2013-04-15 17:42:00,
2013-04-15 13:47:00,62.3,52.0,29.70,SSE,158,0.0,0.0,69,0.00,,OVC024,0.00,VWS V14.01,2013-04-15 17:47:00,
2013-04-15 13:52:00,62.7,52.4,29.70,SE,145,0.0,0.0,69,0.00,,OVC024,0.00,VWS V14.01,2013-04-15 17:52:00,
2013-04-15 13:57:00,62.3,52.0,29.70,South,189,0.0,0.0,69,0.00,,OVC024,0.00,VWS V14.01,2013-04-15 17:57:00,
2013-04-15 14:02:00,61.8,51.9,29.71,SSE,165,0.0,0.0,70,0.00,,OVC024,0.00,VWS V14.01,2013-04-15 18:02:00,
2013-04-15 14:07:00,61.8,51.9,29.71,SW,215,0.0,0.0,70,0.00,,OVC024,0.00,VWS V14.01,2013-04-15 18:07:00,
2013-04-15 14:12:00,62.0,52.5,29.71,SW,215,0.0,0.0,71,0.00,,OVC024,0.00,VWS V14.01,2013-04-15 18:12:00,
2013-04-15 14:17:00,61.8,51.9,29.71,SSE,167,0.0,0.0,70,0.00,,OVC024,0.00,VWS V14.01,2013-04-15 18:17:00,
2013-04-15 14:22:00,61.8,51.9,29.71,South,186,0.0,0.0,70,0.00,,OVC024,0.00,VWS V14.01,2013-04-15 18:22:00,
2013-04-15 14:27:00,62.3,52.8,29.71,South,171,0.0,0.0,71,0.00,,OVC024,0.00,VWS V14.01,2013-04-15 18:27:00,
2013-04-15 14:32:00,62.9,52.6,29.70,South,171,0.0,0.0,69,0.00,,OVC024,0.00,VWS V14.01,2013-04-15 18:32:00,
2013-04-15 14:37:00,63.2,52.5,29.70,SE,138,0.0,0.0,68,0.00,,OVC024,0.00,VWS V14.01,2013-04-15 18:37:00,
2013-04-15 14:47:00,62.9,52.6,29.68,South,172,0.0,0.0,69,0.00,,OVC022,0.00,VWS V14.01,2013-04-15 18:47:00,
2013-04-15 14:52:00,62.6,52.7,29.68,South,176,0.0,0.0,70,0.00,,OVC022,0.00,VWS V14.01,2013-04-15 18:52:00,
2013-04-15 14:57:00,62.6,52.3,29.68,SSE,150,0.0,0.0,69,0.00,,OVC022,0.00,VWS V14.01,2013-04-15 18:57:00,
2013-04-15 15:02:00,62.4,52.5,29.69,South,189,0.0,0.0,70,0.00,,OVC022,0.00,VWS V14.01,2013-04-15 19:02:00,
2013-04-15 15:07:00,62.6,52.7,29.69,SE,145,0.0,0.0,70,0.00,,OVC022,0.00,VWS V14.01,2013-04-15 19:07:00,
2013-04-15 15:12:00,62.9,52.6,29.69,SE,131,0.0,0.0,69,0.00,,OVC022,0.00,VWS V14.01,2013-04-15 19:12:00,
2013-04-15 15:17:00,63.1,52.8,29.67,SE,145,0.0,0.0,69,0.00,,OVC022,0.00,VWS V14.01,2013-04-15 19:17:00,
2013-04-15 15:22:00,63.1,52.4,29.67,SSE,164,0.0,0.0,68,0.00,,OVC022,0.00,VWS V14.01,2013-04-15 19:22:00,
2013-04-15 15:27:00,63.4,53.1,29.67,SSE,167,0.0,0.0,69,0.00,,OVC022,0.00,VWS V14.01,2013-04-15 19:27:00,
2013-04-15 15:37:00,64.5,53.7,29.67,SSE,157,0.0,0.0,68,0.00,,OVC022,0.00,VWS V14.01,2013-04-15 19:37:00,
2013-04-15 15:47:00,64.8,53.2,29.67,SSE,168,0.0,0.0,66,0.00,,OVC022,0.00,VWS V14.01,2013-04-15 19:47:00,
2013-04-15 15:52:00,64.5,53.3,29.67,SSE,148,0.0,0.0,67,0.00,,OVC022,0.00,VWS V14.01,2013-04-15 19:52:00,
2013-04-15 15:57:00,64.0,53.2,29.67,SE,143,0.0,0.0,68,0.00,,OVC022,0.00,VWS V14.01,2013-04-15 19:57:00,
2013-04-15 16:02:00,63.7,53.3,29.68,SSE,165,0.0,0.0,69,0.00,,OVC022,0.00,VWS V14.01,2013-04-15 20:02:00,
2013-04-15 16:07:00,63.5,53.2,29.68,SSW,202,0.0,0.0,69,0.00,,OVC022,0.00,VWS V14.01,2013-04-15 20:07:00,
2013-04-15 16:12:00,63.5,53.2,29.68,SSE,161,0.0,0.0,69,0.00,,OVC022,0.00,VWS V14.01,2013-04-15 20:12:00,
2013-04-15 16:17:00,63.4,53.1,29.70,SW,217,0.0,0.0,69,0.00,,OVC022,0.00,VWS V14.01,2013-04-15 20:17:00,
2013-04-15 16:22:00,63.2,53.3,29.70,SSW,210,0.0,0.0,70,0.00,,OVC022,0.00,VWS V14.01,2013-04-15 20:22:00,
2013-04-15 16:27:00,62.9,53.4,29.70,SE,145,0.0,0.0,71,0.00,,OVC022,0.00,VWS V14.01,2013-04-15 20:27:00,
2013-04-15 16:32:00,62.9,53.0,29.70,SSW,209,0.0,0.0,70,0.00,,OVC022,0.00,VWS V14.01,2013-04-15 20:32:00,
2013-04-15 16:37:00,62.7,53.2,29.70,SSE,161,0.0,0.0,71,0.00,,OVC022,0.00,VWS V14.01,2013-04-15 20:37:00,
2013-04-15 16:42:00,62.7,53.2,29.70,SSW,203,0.0,0.0,71,0.00,,BKN029,0.00,VWS V14.01,2013-04-15 20:42:00,
2013-04-15 16:47:00,62.7,53.2,29.69,South,184,0.0,0.0,71,0.00,,BKN029,0.00,VWS V14.01,2013-04-15 20:47:00,
2013-04-15 16:52:00,62.9,53.8,29.69,SSW,208,0.0,0.0,72,0.00,,BKN029,0.00,VWS V14.01,2013-04-15 20:52:00,
2013-04-15 16:57:00,63.2,54.0,29.69,SSE,148,0.0,0.0,72,0.00,,BKN029,0.00,VWS V14.01,2013-04-15 20:57:00,
2013-04-15 17:02:00,63.7,54.1,29.67,SSW,198,0.0,0.0,71,0.00,,BKN029,0.00,VWS V14.01,2013-04-15 21:02:00,
2013-04-15 17:12:00,64.0,53.6,29.67,SSE,165,0.0,0.0,69,0.00,,BKN029,0.00,VWS V14.01,2013-04-15 21:12:00,
2013-04-15 17:17:00,63.9,53.9,29.68,South,189,0.0,0.0,70,0.00,,BKN029,0.00,VWS V14.01,2013-04-15 21:17:00,
2013-04-15 17:22:00,63.5,53.5,29.68,South,178,0.0,0.0,70,0.00,,BKN029,0.00,VWS V14.01,2013-04-15 21:22:00,
2013-04-15 17:27:00,63.4,53.8,29.68,SW,216,0.0,0.0,71,0.00,,BKN029,0.00,VWS V14.01,2013-04-15 21:27:00,
2013-04-15 17:32:00,63.2,53.7,29.69,SSW,195,0.0,0.0,71,0.00,,BKN029,0.00,VWS V14.01,2013-04-15 21:32:00,
2013-04-15 17:37:00,63.2,53.7,29.69,South,178,0.0,0.0,71,0.00,,BKN029,0.00,VWS V14.01,2013-04-15 21:37:00,
2013-04-15 17:42:00,63.4,53.8,29.69,SW,219,0.0,0.0,71,0.00,,OVC024,0.00,VWS V14.01,2013-04-15 21:42:00,
2013-04-15 17:47:00,63.2,53.7,29.69,SSW,213,0.0,0.0,71,0.00,,OVC024,0.00,VWS V14.01,2013-04-15 21:47:00,
2013-04-15 17:52:00,63.2,53.7,29.69,SW,216,0.0,0.0,71,0.00,,OVC024,0.00,VWS V14.01,2013-04-15 21:52:00,
2013-04-15 17:57:00,63.2,53.7,29.69,SSW,193,0.0,0.0,71,0.00,,OVC024,0.00,VWS V14.01,2013-04-15 21:57:00,
2013-04-15 18:02:00,63.2,54.0,29.69,SSW,206,0.0,0.0,72,0.00,,OVC024,0.00,VWS V14.01,2013-04-15 22:02:00,
2013-04-15 18:12:00,62.9,53.8,29.69,South,174,0.0,0.0,72,0.00,,OVC024,0.00,VWS V14.01,2013-04-15 22:12:00,
2013-04-15 18:17:00,62.9,53.8,29.69,South,171,0.0,0.0,72,0.00,,OVC024,0.00,VWS V14.01,2013-04-15 22:17:00,
2013-04-15 18:22:00,62.9,53.8,29.69,SW,223,0.0,0.0,72,0.00,,OVC024,0.00,VWS V14.01,2013-04-15 22:22:00,
2013-04-15 18:27:00,62.6,53.5,29.69,SW,223,0.0,0.0,72,0.00,,OVC024,0.00,VWS V14.01,2013-04-15 22:27:00,
2013-04-15 18:37:00,62.3,53.2,29.70,SSW,206,0.0,0.0,72,0.00,,OVC024,0.00,VWS V14.01,2013-04-15 22:37:00,
2013-04-15 18:42:00,62.3,53.5,29.70,SW,223,0.0,0.0,73,0.00,,-RA,0.00,VWS V14.01,2013-04-15 22:42:00,
2013-04-15 18:47:00,62.3,53.5,29.71,SW,216,0.0,0.0,73,0.00,,-RA,0.00,VWS V14.01,2013-04-15 22:47:00,
2013-04-15 18:57:00,62.1,53.7,29.71,SSW,206,0.0,0.0,74,0.00,,-RA,0.00,VWS V14.01,2013-04-15 22:57:00,
2013-04-15 19:02:00,62.1,53.7,29.70,South,191,0.0,0.0,74,0.00,,-RA,0.00,VWS V14.01,2013-04-15 23:02:00,
2013-04-15 19:07:00,62.3,53.9,29.70,SW,219,0.0,0.0,74,0.00,,-RA,0.00,VWS V14.01,2013-04-15 23:07:00,
2013-04-15 19:12:00,62.3,53.9,29.70,SSW,212,0.0,0.0,74,0.00,,-RA,0.00,VWS V14.01,2013-04-15 23:12:00,
2013-04-15 19:17:00,62.4,54.0,29.70,SW,223,0.0,0.0,74,0.00,,-RA,0.00,VWS V14.01,2013-04-15 23:17:00,
2013-04-15 19:22:00,62.3,53.9,29.70,SSW,199,0.0,0.0,74,0.00,,-RA,0.00,VWS V14.01,2013-04-15 23:22:00,
2013-04-15 19:32:00,62.3,54.3,29.69,SSW,200,0.0,0.0,75,0.00,,-RA,0.00,VWS V14.01,2013-04-15 23:32:00,
2013-04-15 19:42:00,62.3,54.3,29.69,SW,217,0.0,0.0,75,0.00,,RA,0.00,VWS V14.01,2013-04-15 23:42:00,
2013-04-15 19:47:00,62.1,54.1,29.69,SW,217,0.0,0.0,75,0.00,,RA,0.00,VWS V14.01,2013-04-15 23:47:00,
2013-04-15 19:52:00,62.1,54.1,29.69,SSW,212,0.0,0.0,75,0.00,,RA,0.00,VWS V14.01,2013-04-15 23:52:00,
2013-04-15 19:57:00,62.1,54.1,29.69,SSW,200,0.0,0.0,75,0.00,,RA,0.00,VWS V14.01,2013-04-15 23:57:00,
2013-04-15 20:02:00,62.1,54.1,29.70,SSW,212,0.0,0.0,75,0.00,,RA,0.00,VWS V14.01,2013-04-16 00:02:00,
2013-04-15 20:07:00,62.1,54.1,29.70,SSW,210,0.0,0.0,75,0.00,,RA,0.00,VWS V14.01,2013-04-16 00:07:00,
2013-04-15 20:12:00,62.1,54.1,29.70,SW,217,0.0,0.0,75,0.00,,RA,0.00,VWS V14.01,2013-04-16 00:12:00,
2013-04-15 20:22:00,62.0,54.0,29.71,SSW,206,0.0,0.0,75,0.00,,RA,0.00,VWS V14.01,2013-04-16 00:22:00,
2013-04-15 20:27:00,62.0,54.4,29.71,SSW,206,0.0,0.0,76,0.00,,RA,0.00,VWS V14.01,2013-04-16 00:27:00,
2013-04-15 20:32:00,62.0,54.4,29.70,SSW,206,0.0,0.0,76,0.00,,RA,0.00,VWS V14.01,2013-04-16 00:32:00,
2013-04-15 20:42:00,61.8,54.2,29.70,SSW,206,0.0,0.0,76,0.00,,RA,0.00,VWS V14.01,2013-04-16 00:42:00,
2013-04-15 20:47:00,61.6,54.0,29.69,SSW,206,0.0,0.0,76,0.00,,RA,0.00,VWS V14.01,2013-04-16 00:47:00,
2013-04-15 20:52:00,61.6,54.3,29.69,SSW,206,0.0,0.0,77,0.00,,RA,0.00,VWS V14.01,2013-04-16 00:52:00,
2013-04-15 20:57:00,61.5,54.2,29.69,SSW,206,0.0,0.0,77,0.00,,RA,0.00,VWS V14.01,2013-04-16 00:57:00,
2013-04-15 21:02:00,61.3,54.0,29.69,SSW,206,0.0,0.0,77,0.00,,RA,0.00,VWS V14.01,2013-04-16 01:02:00,
2013-04-15 21:12:00,60.9,54.0,29.69,SSW,206,0.0,0.0,78,0.00,,RA,0.00,VWS V14.01,2013-04-16 01:12:00,
2013-04-15 21:22:00,60.5,54.0,29.69,SSW,206,0.0,0.0,79,0.00,,RA,0.00,VWS V14.01,2013-04-16 01:22:00,
2013-04-15 21:27:00,60.4,53.9,29.69,SSW,206,0.0,0.0,79,0.00,,RA,0.00,VWS V14.01,2013-04-16 01:27:00,
2013-04-15 21:32:00,60.1,53.6,29.70,SSW,199,0.0,0.0,79,0.00,,RA,0.00,VWS V14.01,2013-04-16 01:32:00,
2013-04-15 21:37:00,59.9,53.4,29.70,SSW,198,0.0,0.0,79,0.00,,RA,0.00,VWS V14.01,2013-04-16 01:37:00,
2013-04-15 21:47:00,59.9,53.7,29.70,SSE,151,0.0,0.0,80,0.00,,-RA,0.00,VWS V14.01,2013-04-16 01:47:00,
2013-04-15 21:52:00,59.9,54.1,29.70,SSE,150,0.0,0.0,81,0.00,,-RA,0.00,VWS V14.01,2013-04-16 01:52:00,
2013-04-15 21:57:00,59.9,54.1,29.70,SSE,150,0.0,0.0,81,0.00,,-RA,0.00,VWS V14.01,2013-04-16 01:57:00,
2013-04-15 22:02:00,59.9,54.1,29.70,SSE,148,0.0,0.0,81,0.00,,-RA,0.00,VWS V14.01,2013-04-16 02:02:00,
2013-04-15 22:07:00,59.9,54.1,29.70,SSE,147,0.0,0.0,81,0.00,,-RA,0.00,VWS V14.01,2013-04-16 02:07:00,
2013-04-15 22:12:00,59.8,54.0,29.70,SE,144,0.0,0.0,81,0.00,,-RA,0.00,VWS V14.01,2013-04-16 02:12:00,
2013-04-15 22:22:00,59.3,53.5,29.68,SE,124,0.0,0.0,81,0.00,,-RA,0.00,VWS V14.01,2013-04-16 02:22:00,
2013-04-15 22:27:00,59.5,54.0,29.68,SE,124,0.0,0.0,82,0.00,,-RA,0.00,VWS V14.01,2013-04-16 02:27:00,
2013-04-15 22:37:00,59.6,53.8,29.70,SE,124,0.0,0.0,81,0.00,,-RA,0.00,VWS V14.01,2013-04-16 02:37:00,
2013-04-15 22:42:00,59.8,54.0,29.70,SE,124,0.0,0.0,81,0.00,,-RA,0.00,VWS V14.01,2013-04-16 02:42:00,
2013-04-15 22:47:00,59.8,54.0,29.71,SE,124,0.0,0.0,81,0.00,,-RA,0.00,VWS V14.01,2013-04-16 02:47:00,
2013-04-15 22:57:00,59.9,54.1,29.71,SE,124,0.0,0.0,81,0.00,,-RA,0.00,VWS V14.01,2013-04-16 02:57:00,
2013-04-15 23:02:00,60.1,54.3,29.70,SE,124,0.0,0.0,81,0.00,,-RA,0.00,VWS V14.01,2013-04-16 03:02:00,
2013-04-15 23:12:00,60.2,54.0,29.70,SE,124,0.0,0.0,80,0.00,,-RA,0.00,VWS V14.01,2013-04-16 03:12:00,
2013-04-15 23:22:00,60.1,53.9,29.70,SE,124,0.0,0.0,80,0.00,,-RA,0.00,VWS V14.01,2013-04-16 03:22:00,
2013-04-15 23:32:00,60.1,54.3,29.70,SE,124,0.0,0.0,81,0.00,,-RA,0.00,VWS V14.01,2013-04-16 03:32:00,
2013-04-15 23:37:00,60.1,54.3,29.70,SE,124,0.0,0.0,81,0.00,,-RA,0.00,VWS V14.01,2013-04-16 03:37:00,
2013-04-15 23:42:00,59.9,54.1,29.70,SE,124,0.0,0.0,81,0.00,,-RA,0.00,VWS V14.01,2013-04-16 03:42:00,
2013-04-15 23:52:00,59.5,54.0,29.72,SE,144,0.0,0.0,82,0.00,,-RA,0.00,VWS V14.01,2013-04-16 03:52:00,
2013-04-15 23:57:00,59.3,54.2,29.72,SE,144,0.0,0.0,83,0.00,,-RA,0.00,VWS V14.01,2013-04-16 03:57:00,